createdAt,value
2023-04-07T00:00:20.154Z,46.00
2023-04-07T00:01:23.514Z,46.06
2023-04-07T00:02:27.169Z,45.59
2023-04-07T00:03:29.270Z,46.17
2023-04-07T00:04:32.513Z,45.87
2023-04-07T00:05:34.656Z,45.80
2023-04-07T00:06:37.610Z,46.22
2023-04-07T00:07:52.316Z,45.69
2023-04-07T00:08:59.524Z,46.16
2023-04-07T00:10:01.468Z,45.78
2023-04-07T00:11:04.428Z,45.98
2023-04-07T00:12:06.929Z,45.77
2023-04-07T00:13:09.750Z,45.87
2023-04-07T00:14:11.657Z,45.89
2023-04-07T00:15:14.514Z,46.15
2023-04-07T00:16:16.664Z,45.46
2023-04-07T00:17:20.912Z,46.28
2023-04-07T00:18:22.882Z,46.12
2023-04-07T00:19:25.799Z,46.25
2023-04-07T00:20:27.685Z,45.89
2023-04-07T00:21:31.044Z,46.17
2023-04-07T00:22:33.430Z,46.01
2023-04-07T00:23:36.605Z,46.57
2023-04-07T00:24:38.518Z,45.94
2023-04-07T00:25:41.552Z,46.46
2023-04-07T00:26:43.452Z,46.21
2023-04-07T00:27:46.475Z,46.49
2023-04-07T00:28:48.716Z,46.15
2023-04-07T00:29:51.766Z,46.42
2023-04-07T00:30:53.677Z,46.44
2023-04-07T00:31:56.534Z,46.45
2023-04-07T00:32:59.862Z,46.49
2023-04-07T00:34:02.793Z,46.58
2023-04-07T00:35:05.267Z,45.81
2023-04-07T00:36:08.613Z,46.50
2023-04-07T00:37:10.533Z,46.12
2023-04-07T00:38:13.402Z,46.05
2023-04-07T00:39:15.420Z,46.20
2023-04-07T00:40:18.678Z,46.07
2023-04-07T00:41:20.791Z,46.26
2023-04-07T00:42:23.825Z,46.07
2023-04-07T00:43:26.841Z,46.09
2023-04-07T00:44:28.968Z,45.87
2023-04-07T00:45:32.250Z,45.80
2023-04-07T00:46:34.249Z,45.90
2023-04-07T00:47:37.560Z,46.43
2023-04-07T00:48:40.907Z,45.70
2023-04-07T00:49:43.988Z,46.17
2023-04-07T00:50:46.276Z,46.13
2023-04-07T00:51:49.264Z,46.39
2023-04-07T00:52:51.603Z,46.28
2023-04-07T00:53:56.180Z,46.01
2023-04-07T00:55:00.307Z,46.02
2023-04-07T00:56:03.176Z,45.79
2023-04-07T00:57:05.316Z,46.25
2023-04-07T00:58:08.201Z,45.68
2023-04-07T00:59:10.283Z,45.78
2023-04-07T01:00:13.990Z,45.78
2023-04-07T01:01:20.037Z,45.87
2023-04-07T01:02:31.728Z,46.28
2023-04-07T01:03:36.822Z,45.65
2023-04-07T01:04:47.675Z,45.87
2023-04-07T01:05:55.987Z,46.39
2023-04-07T01:07:06.600Z,45.90
2023-04-07T01:08:18.725Z,45.85
2023-04-07T01:09:27.928Z,46.09
2023-04-07T01:10:38.712Z,46.29
2023-04-07T01:11:58.567Z,45.74
2023-04-07T01:13:05.946Z,46.46
2023-04-07T01:14:12.145Z,45.79
2023-04-07T01:15:21.666Z,46.14
2023-04-07T01:16:33.462Z,46.12
2023-04-07T01:17:38.103Z,46.51
2023-04-07T01:18:42.234Z,45.92
2023-04-07T01:19:48.823Z,46.49
2023-04-07T01:20:53.313Z,46.04
2023-04-07T01:21:58.375Z,46.51
2023-04-07T01:23:07.576Z,46.26
2023-04-07T01:24:30.114Z,46.65
2023-04-07T01:26:05.846Z,46.33
2023-04-07T01:27:19.125Z,46.78
2023-04-07T01:28:42.646Z,46.36
2023-04-07T01:29:48.234Z,46.78
2023-04-07T01:30:53.290Z,46.64
2023-04-07T01:31:56.844Z,46.71
2023-04-07T01:33:01.714Z,46.67
2023-04-07T01:34:04.332Z,46.92
2023-04-07T01:35:11.419Z,46.67
2023-04-07T01:36:15.643Z,46.84
2023-04-07T01:37:19.014Z,46.89
2023-04-07T01:38:21.528Z,46.82
2023-04-07T01:39:24.680Z,47.11
2023-04-07T01:40:28.044Z,47.19
2023-04-07T01:41:31.302Z,46.96
2023-04-07T01:42:34.220Z,47.16
2023-04-07T01:43:41.672Z,46.73
2023-04-07T01:44:46.778Z,47.29
2023-04-07T01:45:50.458Z,47.08
2023-04-07T01:46:52.582Z,46.73
2023-04-07T01:47:56.320Z,47.29
2023-04-07T01:48:59.495Z,47.08
2023-04-07T01:50:04.612Z,47.52
2023-04-07T01:51:07.944Z,47.32
2023-04-07T01:52:11.682Z,47.04
2023-04-07T01:53:15.437Z,47.35
2023-04-07T01:54:19.445Z,48.11
2023-04-07T01:55:24.512Z,47.67
2023-04-07T01:56:36.665Z,48.53
2023-04-07T01:57:41.237Z,47.90
2023-04-07T01:58:50.297Z,47.77
2023-04-07T01:59:56.361Z,47.59
2023-04-07T02:01:01.947Z,47.52
2023-04-07T02:02:04.332Z,48.19
2023-04-07T02:03:12.547Z,48.65
2023-04-07T02:04:22.181Z,49.12
2023-04-07T02:05:25.982Z,48.45
2023-04-07T02:06:33.104Z,49.44
2023-04-07T02:07:41.429Z,49.29
2023-04-07T02:08:49.061Z,48.73
2023-04-07T02:09:54.507Z,50.93
2023-04-07T02:10:58.467Z,51.15
2023-04-07T02:12:09.089Z,50.95
2023-04-07T02:13:18.623Z,51.23
2023-04-07T02:14:24.418Z,51.14
2023-04-07T02:15:42.500Z,51.62
2023-04-07T02:16:48.860Z,50.79
2023-04-07T02:17:53.723Z,51.74
2023-04-07T02:18:57.246Z,51.41
2023-04-07T02:20:00.978Z,52.61
2023-04-07T02:21:06.373Z,51.60
2023-04-07T02:22:09.308Z,52.57
2023-04-07T02:23:12.405Z,51.71
2023-04-07T02:24:14.285Z,52.46
2023-04-07T02:25:24.927Z,52.70
2023-04-07T02:26:29.131Z,52.62
2023-04-07T02:27:33.186Z,52.17
2023-04-07T02:28:35.054Z,51.73
2023-04-07T02:29:37.868Z,51.30
2023-04-07T02:30:41.285Z,52.74
2023-04-07T02:32:00.591Z,51.97
2023-04-07T02:33:04.670Z,52.46
2023-04-07T02:34:07.530Z,54.99
2023-04-07T02:35:09.592Z,53.13
2023-04-07T02:36:12.443Z,54.04
2023-04-07T02:37:14.239Z,52.39
2023-04-07T02:38:17.069Z,51.82
2023-04-07T02:39:18.917Z,51.58
2023-04-07T02:40:21.764Z,51.66
2023-04-07T02:41:23.645Z,51.20
2023-04-07T02:42:26.631Z,52.92
2023-04-07T02:43:28.445Z,51.97
2023-04-07T02:44:31.343Z,52.31
2023-04-07T02:45:33.361Z,55.31
2023-04-07T02:46:37.763Z,54.14
2023-04-07T02:47:40.321Z,51.62
2023-04-07T02:48:43.190Z,51.26
2023-04-07T02:49:45.289Z,51.44
2023-04-07T02:50:48.089Z,50.97
2023-04-07T02:51:49.933Z,51.71
2023-04-07T02:52:52.921Z,51.56
2023-04-07T02:53:55.340Z,50.87
2023-04-07T02:54:58.376Z,51.04
2023-04-07T02:56:02.593Z,50.60
2023-04-07T02:57:05.802Z,50.45
2023-04-07T02:58:07.795Z,52.50
2023-04-07T02:59:15.306Z,51.35
2023-04-07T03:00:18.967Z,51.60
2023-04-07T03:01:43.711Z,51.25
2023-04-07T03:02:45.917Z,50.75
2023-04-07T03:03:50.368Z,51.18
2023-04-07T03:04:58.477Z,51.11
2023-04-07T03:06:04.051Z,50.86
2023-04-07T03:07:06.722Z,50.76
2023-04-07T03:08:12.316Z,50.96
2023-04-07T03:09:15.130Z,52.41
2023-04-07T03:10:18.105Z,51.68
2023-04-07T03:11:20.026Z,51.57
2023-04-07T03:12:24.009Z,52.09
2023-04-07T03:13:25.939Z,52.15
2023-04-07T03:14:29.049Z,51.13
2023-04-07T03:15:31.115Z,52.20
2023-04-07T03:16:34.207Z,51.32
2023-04-07T03:17:42.724Z,52.49
2023-04-07T03:18:46.305Z,51.78
2023-04-07T03:19:48.597Z,51.65
2023-04-07T03:20:52.992Z,52.13
2023-04-07T03:21:54.964Z,51.92
2023-04-07T03:22:57.990Z,52.61
2023-04-07T03:24:03.403Z,51.96
2023-04-07T03:25:07.046Z,51.50
2023-04-07T03:26:09.402Z,51.96
2023-04-07T03:27:14.165Z,51.31
2023-04-07T03:28:20.421Z,52.31
2023-04-07T03:29:24.122Z,52.34
2023-04-07T03:30:27.454Z,51.39
2023-04-07T03:31:30.439Z,51.51
2023-04-07T03:32:32.542Z,51.59
2023-04-07T03:33:36.860Z,51.62
2023-04-07T03:34:38.740Z,52.08
2023-04-07T03:35:41.714Z,52.41
2023-04-07T03:36:44.663Z,52.36
2023-04-07T03:37:46.465Z,52.12
2023-04-07T03:38:53.081Z,52.07
2023-04-07T03:39:55.324Z,52.50
2023-04-07T03:41:02.240Z,52.26
2023-04-07T03:42:04.218Z,52.56
2023-04-07T03:43:12.492Z,52.25
2023-04-07T03:44:14.524Z,52.56
2023-04-07T03:45:18.022Z,52.92
2023-04-07T03:46:23.611Z,52.55
2023-04-07T03:47:26.710Z,53.13
2023-04-07T03:48:33.290Z,52.96
2023-04-07T03:49:46.107Z,51.94
2023-04-07T03:50:47.910Z,52.55
2023-04-07T03:51:53.684Z,52.41
2023-04-07T03:52:55.704Z,52.54
2023-04-07T03:54:05.721Z,53.09
2023-04-07T03:55:12.638Z,52.32
2023-04-07T03:56:17.140Z,52.55
2023-04-07T03:57:24.740Z,52.55
2023-04-07T03:58:28.243Z,52.58
2023-04-07T03:59:31.668Z,52.20
2023-04-07T04:00:38.586Z,52.13
2023-04-07T04:01:44.031Z,52.54
2023-04-07T04:02:51.195Z,53.40
2023-04-07T04:03:55.282Z,53.33
2023-04-07T04:05:09.252Z,53.01
2023-04-07T04:06:11.331Z,53.09
2023-04-07T04:07:14.251Z,52.99
2023-04-07T04:08:25.583Z,52.63
2023-04-07T04:09:29.746Z,53.46
2023-04-07T04:10:31.855Z,52.89
2023-04-07T04:11:34.892Z,53.93
2023-04-07T04:12:39.273Z,53.09
2023-04-07T04:13:45.695Z,53.85
2023-04-07T04:14:47.714Z,53.70
2023-04-07T04:15:52.461Z,54.11
2023-04-07T04:16:55.320Z,54.11
2023-04-07T04:18:06.281Z,53.26
2023-04-07T04:19:10.040Z,54.53
2023-04-07T04:20:13.554Z,54.01
2023-04-07T04:21:19.190Z,54.58
2023-04-07T04:22:21.969Z,54.00
2023-04-07T04:23:28.895Z,53.71
2023-04-07T04:24:32.674Z,53.92
2023-04-07T04:25:39.708Z,53.58
2023-04-07T04:26:43.769Z,53.82
2023-04-07T04:27:48.962Z,53.36
2023-04-07T04:28:57.864Z,54.15
2023-04-07T04:30:01.534Z,55.05
2023-04-07T04:31:13.188Z,54.21
2023-04-07T04:32:18.514Z,53.76
2023-04-07T04:33:21.470Z,53.89
2023-04-07T04:34:28.886Z,54.16
2023-04-07T04:35:34.100Z,53.90
2023-04-07T04:36:42.759Z,53.80
2023-04-07T04:37:45.785Z,53.93
2023-04-07T04:38:49.103Z,53.81
2023-04-07T04:39:55.473Z,55.55
2023-04-07T04:40:59.012Z,54.60
2023-04-07T04:42:06.497Z,55.15
2023-04-07T04:43:10.983Z,53.98
2023-04-07T04:44:16.300Z,54.36
2023-04-07T04:45:19.414Z,53.05
2023-04-07T04:46:24.536Z,53.24
2023-04-07T04:47:27.343Z,56.16
2023-04-07T04:48:30.505Z,53.80
2023-04-07T04:49:32.737Z,53.60
2023-04-07T04:50:39.750Z,54.18
2023-04-07T04:51:45.794Z,53.66
2023-04-07T04:52:52.343Z,54.14
2023-04-07T04:53:57.770Z,54.66
2023-04-07T04:55:02.915Z,53.80
2023-04-07T04:56:05.827Z,54.07
2023-04-07T04:57:21.496Z,54.75
2023-04-07T04:58:23.495Z,53.95
2023-04-07T04:59:29.502Z,54.84
2023-04-07T05:00:36.237Z,54.09
2023-04-07T05:01:42.602Z,54.37
2023-04-07T05:02:49.725Z,54.37
2023-04-07T05:03:53.209Z,55.52
2023-04-07T05:05:03.941Z,54.22
2023-04-07T05:06:08.400Z,54.19
2023-04-07T05:07:11.437Z,54.49
2023-04-07T05:08:14.384Z,54.70
2023-04-07T05:09:16.376Z,54.95
2023-04-07T05:10:21.859Z,54.88
2023-04-07T05:11:26.630Z,54.18
2023-04-07T05:12:31.839Z,54.46
2023-04-07T05:13:36.569Z,54.62
2023-04-07T05:14:40.630Z,54.85
2023-04-07T05:15:43.885Z,54.50
2023-04-07T05:16:49.242Z,54.34
2023-04-07T05:17:56.749Z,55.32
2023-04-07T05:19:02.362Z,54.23
2023-04-07T05:20:07.898Z,54.26
2023-04-07T05:21:14.220Z,54.76
2023-04-07T05:22:17.301Z,54.37
2023-04-07T05:23:22.437Z,54.51
2023-04-07T05:24:28.308Z,55.24
2023-04-07T05:25:33.672Z,55.05
2023-04-07T05:26:39.809Z,54.61
2023-04-07T05:27:42.069Z,54.56
2023-04-07T05:28:49.785Z,54.97
2023-04-07T05:29:55.442Z,55.84
2023-04-07T05:31:03.816Z,54.98
2023-04-07T05:32:08.002Z,55.34
2023-04-07T05:33:11.970Z,55.03
2023-04-07T05:34:19.290Z,54.98
2023-04-07T05:35:27.022Z,54.70
2023-04-07T05:36:33.594Z,54.57
2023-04-07T05:37:36.492Z,54.14
2023-04-07T05:38:40.344Z,54.30
2023-04-07T05:39:48.230Z,55.18
2023-04-07T05:40:50.606Z,55.70
2023-04-07T05:42:12.779Z,54.99
2023-04-07T05:43:15.070Z,54.53
2023-04-07T05:44:18.061Z,54.43
2023-04-07T05:45:20.777Z,54.35
2023-04-07T05:46:26.213Z,54.82
2023-04-07T05:47:31.958Z,55.00
2023-04-07T05:48:35.854Z,55.17
2023-04-07T05:49:45.742Z,55.34
2023-04-07T05:50:49.376Z,54.87
2023-04-07T05:51:54.660Z,54.91
2023-04-07T05:52:58.193Z,54.97
2023-04-07T05:54:03.459Z,55.25
2023-04-07T05:55:07.799Z,55.73
2023-04-07T05:56:09.701Z,54.42
2023-04-07T05:57:19.886Z,55.30
2023-04-07T05:58:23.408Z,55.80
2023-04-07T05:59:29.901Z,55.47
2023-04-07T06:00:31.988Z,56.05
2023-04-07T06:01:41.245Z,54.86
2023-04-07T06:02:44.833Z,55.52
2023-04-07T06:03:53.323Z,55.91
2023-04-07T06:04:58.350Z,56.35
2023-04-07T06:06:01.376Z,56.47
2023-04-07T06:07:05.800Z,56.22
2023-04-07T06:08:08.748Z,56.65
2023-04-07T06:09:10.736Z,57.38
2023-04-07T06:10:13.617Z,56.75
2023-04-07T06:11:15.541Z,56.12
2023-04-07T06:12:18.957Z,55.25
2023-04-07T06:13:21.104Z,55.40
2023-04-07T06:14:24.193Z,55.71
2023-04-07T06:15:26.059Z,54.60
2023-04-07T06:16:29.051Z,58.19
2023-04-07T06:17:31.300Z,57.17
2023-04-07T06:18:34.221Z,55.38
2023-04-07T06:19:36.524Z,55.52
2023-04-07T06:20:39.390Z,58.78
2023-04-07T06:21:42.396Z,56.92
2023-04-07T06:22:45.597Z,55.86
2023-04-07T06:23:49.462Z,55.37
2023-04-07T06:24:52.924Z,55.05
2023-04-07T06:25:55.938Z,55.15
2023-04-07T06:26:58.917Z,55.03
2023-04-07T06:28:01.272Z,54.81
2023-04-07T06:29:04.213Z,55.46
2023-04-07T06:30:07.369Z,55.17
2023-04-07T06:31:12.370Z,55.43
2023-04-07T06:32:14.271Z,55.28
2023-04-07T06:33:17.446Z,55.38
2023-04-07T06:34:19.389Z,56.06
2023-04-07T06:35:22.385Z,55.57
2023-04-07T06:36:24.385Z,55.88
2023-04-07T06:37:29.331Z,55.45
2023-04-07T06:38:32.610Z,55.82
2023-04-07T06:39:35.795Z,55.71
2023-04-07T06:40:37.755Z,55.23
2023-04-07T06:41:43.053Z,55.51
2023-04-07T06:42:45.477Z,56.02
2023-04-07T06:43:57.821Z,56.41
2023-04-07T06:44:59.669Z,56.46
2023-04-07T06:46:02.494Z,57.48
2023-04-07T06:47:04.781Z,55.96
2023-04-07T06:48:08.276Z,56.13
2023-04-07T06:49:10.343Z,57.17
2023-04-07T06:50:13.151Z,56.43
2023-04-07T06:51:14.962Z,56.14
2023-04-07T06:52:17.878Z,57.13
2023-04-07T06:53:19.733Z,56.55
2023-04-07T06:54:24.589Z,56.23
2023-04-07T06:55:27.272Z,58.06
2023-04-07T06:56:30.056Z,56.89
2023-04-07T06:57:32.346Z,56.34
2023-04-07T06:58:35.387Z,55.83
2023-04-07T06:59:38.373Z,56.25
2023-04-07T07:00:40.407Z,56.20
2023-04-07T07:01:43.839Z,56.76
2023-04-07T07:02:45.973Z,56.73
2023-04-07T07:03:49.230Z,57.45
2023-04-07T07:04:51.253Z,58.11
2023-04-07T07:05:54.930Z,58.09
2023-04-07T07:06:57.886Z,56.94
2023-04-07T07:07:59.802Z,56.42
2023-04-07T07:09:03.207Z,56.75
2023-04-07T07:10:08.710Z,56.66
2023-04-07T07:11:11.814Z,57.60
2023-04-07T07:12:15.280Z,56.89
2023-04-07T07:13:18.489Z,57.90
2023-04-07T07:14:21.577Z,56.94
2023-04-07T07:15:24.435Z,56.61
2023-04-07T07:16:28.841Z,57.17
2023-04-07T07:17:30.883Z,58.25
2023-04-07T07:18:33.755Z,57.29
2023-04-07T07:19:35.800Z,57.68
2023-04-07T07:20:38.794Z,59.64
2023-04-07T07:21:41.894Z,59.34
2023-04-07T07:22:44.723Z,58.94
2023-04-07T07:23:47.974Z,58.91
2023-04-07T07:24:49.974Z,59.04
2023-04-07T07:25:54.606Z,58.26
2023-04-07T07:26:57.381Z,60.24
2023-04-07T07:28:00.398Z,59.09
2023-04-07T07:29:03.284Z,57.71
2023-04-07T07:30:07.651Z,58.34
2023-04-07T07:31:10.713Z,58.86
2023-04-07T07:32:13.636Z,59.55
2023-04-07T07:33:16.548Z,59.36
2023-04-07T07:34:18.428Z,59.81
2023-04-07T07:35:21.648Z,60.05
2023-04-07T07:36:23.599Z,59.96
2023-04-07T07:37:26.676Z,59.07
2023-04-07T07:38:28.517Z,61.63
2023-04-07T07:39:31.380Z,62.12
2023-04-07T07:40:33.555Z,62.36
2023-04-07T07:41:37.881Z,64.07
2023-04-07T07:42:40.738Z,65.09
2023-04-07T07:43:43.596Z,63.60
2023-04-07T07:44:46.430Z,63.14
2023-04-07T07:45:49.277Z,62.74
2023-04-07T07:46:51.353Z,63.11
2023-04-07T07:47:54.591Z,62.44
2023-04-07T07:48:56.486Z,62.48
2023-04-07T07:49:59.358Z,60.93
2023-04-07T07:51:02.240Z,61.88
2023-04-07T07:52:05.152Z,62.85
2023-04-07T07:53:06.953Z,62.82
2023-04-07T07:54:10.410Z,63.10
2023-04-07T07:55:12.400Z,60.88
2023-04-07T07:56:15.550Z,61.00
2023-04-07T07:57:19.782Z,61.85
2023-04-07T07:58:22.688Z,62.10
2023-04-07T07:59:24.584Z,61.81
2023-04-07T08:00:27.520Z,61.43
2023-04-07T08:01:29.377Z,60.73
2023-04-07T08:02:33.967Z,61.80
2023-04-07T08:03:36.066Z,61.79
2023-04-07T08:04:39.085Z,60.37
2023-04-07T08:05:42.671Z,61.82
2023-04-07T08:06:44.584Z,61.94
2023-04-07T08:07:48.888Z,61.76
2023-04-07T08:08:51.815Z,62.11
2023-04-07T08:09:54.716Z,60.66
2023-04-07T08:10:56.646Z,61.55
2023-04-07T08:11:59.614Z,60.29
2023-04-07T08:13:05.169Z,60.97
2023-04-07T08:14:09.789Z,61.25
2023-04-07T08:15:13.068Z,60.48
2023-04-07T08:16:14.930Z,60.01
2023-04-07T08:17:17.920Z,61.14
2023-04-07T08:18:20.738Z,60.46
2023-04-07T08:19:22.693Z,60.41
2023-04-07T08:20:27.445Z,60.08
2023-04-07T08:21:31.786Z,61.34
2023-04-07T08:22:34.605Z,60.80
2023-04-07T08:23:37.505Z,61.85
2023-04-07T08:24:39.578Z,61.76
2023-04-07T08:25:42.529Z,60.22
2023-04-07T08:26:45.596Z,60.72
2023-04-07T08:27:48.480Z,60.37
2023-04-07T08:28:51.755Z,60.22
2023-04-07T08:30:00.651Z,60.45
2023-04-07T08:31:03.584Z,60.31
2023-04-07T08:32:06.123Z,59.79
2023-04-07T08:33:08.967Z,60.06
2023-04-07T08:34:11.901Z,59.99
2023-04-07T08:35:13.771Z,59.99
2023-04-07T08:36:16.888Z,60.29
2023-04-07T08:37:18.727Z,58.99
2023-04-07T08:38:22.219Z,58.91
2023-04-07T08:39:25.469Z,58.27
2023-04-07T08:40:27.389Z,58.56
2023-04-07T08:41:34.861Z,58.34
2023-04-07T08:42:42.440Z,57.08
2023-04-07T08:43:47.056Z,58.37
2023-04-07T08:44:53.704Z,57.97
2023-04-07T08:45:57.661Z,57.76
2023-04-07T08:47:02.483Z,57.61
2023-04-07T08:48:10.979Z,58.73
2023-04-07T08:49:14.058Z,58.01
2023-04-07T08:50:19.283Z,57.36
2023-04-07T08:51:27.753Z,56.96
2023-04-07T08:52:35.466Z,57.35
2023-04-07T08:53:44.329Z,57.20
2023-04-07T08:54:46.325Z,63.82
2023-04-07T08:55:49.102Z,69.31
2023-04-07T08:56:51.760Z,64.28
2023-04-07T08:57:55.808Z,65.02
2023-04-07T08:58:57.897Z,63.10
2023-04-07T09:00:05.677Z,59.22
2023-04-07T09:01:09.194Z,57.60
2023-04-07T09:02:12.495Z,58.22
2023-04-07T09:03:14.862Z,56.88
2023-04-07T09:04:18.556Z,56.83
2023-04-07T09:05:21.517Z,57.14
2023-04-07T09:06:24.707Z,57.32
2023-04-07T09:07:27.529Z,56.72
2023-04-07T09:08:30.964Z,57.10
2023-04-07T09:09:32.792Z,57.15
2023-04-07T09:10:35.937Z,57.22
2023-04-07T09:11:40.628Z,57.14
2023-04-07T09:12:43.477Z,56.92
2023-04-07T09:13:46.248Z,57.39
2023-04-07T09:14:49.447Z,55.98
2023-04-07T09:15:53.812Z,56.15
2023-04-07T09:16:56.059Z,56.45
2023-04-07T09:17:59.314Z,56.60
2023-04-07T09:19:02.285Z,56.22
2023-04-07T09:20:04.896Z,56.62
2023-04-07T09:21:08.059Z,55.74
2023-04-07T09:22:14.191Z,55.34
2023-04-07T09:23:29.199Z,55.05
2023-04-07T09:24:32.784Z,56.04
2023-04-07T09:25:34.987Z,55.43
2023-04-07T09:26:37.959Z,55.54
2023-04-07T09:27:40.197Z,56.08
2023-04-07T09:28:44.123Z,62.18
2023-04-07T09:29:48.583Z,57.81
2023-04-07T09:30:55.764Z,56.85
2023-04-07T09:31:58.672Z,56.62
2023-04-07T09:33:02.081Z,56.41
2023-04-07T09:34:24.261Z,57.08
2023-04-07T09:35:28.566Z,57.20
2023-04-07T09:36:41.801Z,56.34
2023-04-07T09:37:44.939Z,55.74
2023-04-07T09:38:46.879Z,55.66
2023-04-07T09:39:51.507Z,55.38
2023-04-07T09:41:07.734Z,56.04
2023-04-07T09:42:09.746Z,55.03
2023-04-07T09:43:17.135Z,55.56
2023-04-07T09:44:19.165Z,55.92
2023-04-07T09:45:34.112Z,56.10
2023-04-07T09:46:49.791Z,55.43
2023-04-07T09:47:51.962Z,56.33
2023-04-07T09:49:05.823Z,55.19
2023-04-07T09:50:08.306Z,54.83
2023-04-07T09:51:12.860Z,55.03
2023-04-07T09:52:14.664Z,54.46
2023-04-07T09:53:19.160Z,54.20
2023-04-07T09:54:33.592Z,54.33
2023-04-07T09:55:36.836Z,55.12
2023-04-07T09:56:38.756Z,54.80
2023-04-07T09:57:42.420Z,53.43
2023-04-07T09:58:47.584Z,54.42
2023-04-07T09:59:52.468Z,54.10
2023-04-07T10:00:55.879Z,54.08
2023-04-07T10:01:59.835Z,53.30
2023-04-07T10:03:03.770Z,52.74
2023-04-07T10:04:06.913Z,52.47
2023-04-07T10:05:09.956Z,53.60
2023-04-07T10:06:12.834Z,54.27
2023-04-07T10:07:15.640Z,54.01
2023-04-07T10:08:19.967Z,54.00
2023-04-07T10:09:23.979Z,55.40
2023-04-07T10:10:28.721Z,55.01
2023-04-07T10:11:32.267Z,53.99
2023-04-07T10:12:36.158Z,54.50
2023-04-07T10:13:41.632Z,54.04
2023-04-07T10:14:47.084Z,54.96
2023-04-07T10:15:49.636Z,54.07
2023-04-07T10:16:52.738Z,54.47
2023-04-07T10:17:57.104Z,54.68
2023-04-07T10:19:00.132Z,53.67
2023-04-07T10:20:04.687Z,53.73
2023-04-07T10:21:09.276Z,54.30
2023-04-07T10:22:13.252Z,53.79
2023-04-07T10:23:21.683Z,53.52
2023-04-07T10:24:39.293Z,54.69
2023-04-07T10:25:42.461Z,54.92
2023-04-07T10:26:45.482Z,52.80
2023-04-07T10:27:52.359Z,53.79
2023-04-07T10:29:00.446Z,54.17
2023-04-07T10:30:06.359Z,54.72
2023-04-07T10:31:09.010Z,54.66
2023-04-07T10:32:12.118Z,55.03
2023-04-07T10:33:15.418Z,53.92
2023-04-07T10:34:18.293Z,54.09
2023-04-07T10:35:21.835Z,54.72
2023-04-07T10:36:24.810Z,54.45
2023-04-07T10:37:27.906Z,55.09
2023-04-07T10:38:31.696Z,53.49
2023-04-07T10:39:35.892Z,53.84
2023-04-07T10:40:39.455Z,53.55
2023-04-07T10:41:41.907Z,53.01
2023-04-07T10:42:48.684Z,53.24
2023-04-07T10:43:51.626Z,54.35
2023-04-07T10:44:53.483Z,52.99
2023-04-07T10:45:59.593Z,53.18
2023-04-07T10:47:07.414Z,52.94
2023-04-07T10:48:11.540Z,53.85
2023-04-07T10:49:19.265Z,53.18
2023-04-07T10:50:23.925Z,53.98
2023-04-07T10:51:27.300Z,53.08
2023-04-07T10:52:29.206Z,53.82
2023-04-07T10:53:32.591Z,53.40
2023-04-07T10:54:34.481Z,54.10
2023-04-07T10:55:39.185Z,53.85
2023-04-07T10:57:08.434Z,54.04
2023-04-07T10:58:19.751Z,56.01
2023-04-07T10:59:27.707Z,55.32
2023-04-07T11:00:31.081Z,57.59
2023-04-07T11:01:34.693Z,56.06
2023-04-07T11:02:39.928Z,65.53
2023-04-07T11:03:52.617Z,66.68
2023-04-07T11:04:57.300Z,58.59
2023-04-07T11:06:03.749Z,53.51
2023-04-07T11:07:07.216Z,51.11
2023-04-07T11:08:09.239Z,52.61
2023-04-07T11:09:20.604Z,52.31
2023-04-07T11:10:23.199Z,52.95
2023-04-07T11:11:40.667Z,51.98
2023-04-07T11:12:43.906Z,53.31
2023-04-07T11:13:48.218Z,52.38
2023-04-07T11:14:51.494Z,52.62
2023-04-07T11:15:54.653Z,51.70
2023-04-07T11:16:56.695Z,51.72
2023-04-07T11:18:20.532Z,52.52
2023-04-07T11:19:23.624Z,52.14
2023-04-07T11:20:41.225Z,51.80
2023-04-07T11:21:44.202Z,52.03
2023-04-07T11:22:59.659Z,52.08
2023-04-07T11:24:02.565Z,52.86
2023-04-07T11:25:20.926Z,52.79
2023-04-07T11:26:23.785Z,51.46
2023-04-07T11:27:27.252Z,51.40
2023-04-07T11:28:30.885Z,52.15
2023-04-07T11:29:34.898Z,51.99
2023-04-07T11:30:37.621Z,51.77
2023-04-07T11:31:40.625Z,52.89
2023-04-07T11:32:42.636Z,52.41
2023-04-07T11:33:53.814Z,51.47
2023-04-07T11:34:56.300Z,51.00
2023-04-07T11:36:02.860Z,51.86
2023-04-07T11:37:20.478Z,51.38
2023-04-07T11:38:24.545Z,51.44
2023-04-07T11:39:28.066Z,52.40
2023-04-07T11:40:35.542Z,51.81
2023-04-07T11:41:47.452Z,53.20
2023-04-07T11:42:49.363Z,53.17
2023-04-07T11:44:05.251Z,52.99
2023-04-07T11:45:19.596Z,53.30
2023-04-07T11:46:23.680Z,52.43
2023-04-07T11:47:35.012Z,51.82
2023-04-07T11:48:38.989Z,52.25
2023-04-07T11:49:47.037Z,52.56
2023-04-07T11:50:49.002Z,53.09
2023-04-07T11:52:02.083Z,53.20
2023-04-07T11:53:04.102Z,53.79
2023-04-07T11:54:07.027Z,53.36
2023-04-07T11:55:22.014Z,54.38
2023-04-07T11:56:25.301Z,52.99
2023-04-07T11:57:28.694Z,52.55
2023-04-07T11:58:31.677Z,56.53
2023-04-07T11:59:34.584Z,60.07
2023-04-07T12:00:37.538Z,62.88
2023-04-07T12:01:41.954Z,55.35
2023-04-07T12:02:45.154Z,56.77
2023-04-07T12:04:00.127Z,53.61
2023-04-07T12:05:02.348Z,52.95
2023-04-07T12:06:06.394Z,52.75
2023-04-07T12:07:12.352Z,54.02
2023-04-07T12:08:14.887Z,52.70
2023-04-07T12:09:29.337Z,53.48
2023-04-07T12:10:33.333Z,52.07
2023-04-07T12:11:37.201Z,52.52
2023-04-07T12:12:39.593Z,53.59
2023-04-07T12:13:42.613Z,52.75
2023-04-07T12:14:44.639Z,52.32
2023-04-07T12:15:47.471Z,51.31
2023-04-07T12:16:49.466Z,49.90
2023-04-07T12:17:52.405Z,51.18
2023-04-07T12:18:55.608Z,50.81
2023-04-07T12:19:57.535Z,51.75
2023-04-07T12:21:00.583Z,51.62
2023-04-07T12:22:02.579Z,52.28
2023-04-07T12:23:06.951Z,52.69
2023-04-07T12:24:08.858Z,58.91
2023-04-07T12:25:11.748Z,56.60
2023-04-07T12:26:17.715Z,53.78
2023-04-07T12:27:21.290Z,53.14
2023-04-07T12:28:27.682Z,53.46
2023-04-07T12:29:30.001Z,52.60
2023-04-07T12:30:33.050Z,52.80
2023-04-07T12:31:35.037Z,52.29
2023-04-07T12:32:38.197Z,52.91
2023-04-07T12:33:41.209Z,52.67
2023-04-07T12:34:43.982Z,52.46
2023-04-07T12:35:46.917Z,51.88
2023-04-07T12:36:49.913Z,52.61
2023-04-07T12:37:52.957Z,52.39
2023-04-07T12:38:57.512Z,52.15
2023-04-07T12:39:59.941Z,52.05
2023-04-07T12:41:03.557Z,52.29
2023-04-07T12:42:05.693Z,52.69
2023-04-07T12:43:08.623Z,63.71
2023-04-07T12:44:10.458Z,65.14
2023-04-07T12:45:13.302Z,60.24
2023-04-07T12:46:15.260Z,54.18
2023-04-07T12:47:18.140Z,51.17
2023-04-07T12:48:21.358Z,62.06
2023-04-07T12:49:23.245Z,59.79
2023-04-07T12:50:26.756Z,57.46
2023-04-07T12:51:30.012Z,54.07
2023-04-07T12:52:32.314Z,53.06
2023-04-07T12:53:35.208Z,52.27
2023-04-07T12:54:38.599Z,51.82
2023-04-07T12:55:42.001Z,51.70
2023-04-07T12:56:44.843Z,52.61
2023-04-07T12:57:48.259Z,52.24
2023-04-07T12:58:51.211Z,52.99
2023-04-07T12:59:53.383Z,53.31
2023-04-07T13:00:56.764Z,52.76
2023-04-07T13:01:58.734Z,51.74
2023-04-07T13:03:01.776Z,52.73
2023-04-07T13:04:04.831Z,51.86
2023-04-07T13:05:07.304Z,53.01
2023-04-07T13:06:10.821Z,54.35
2023-04-07T13:07:12.837Z,54.57
2023-04-07T13:08:15.836Z,54.92
2023-04-07T13:09:17.698Z,56.37
2023-04-07T13:10:21.965Z,55.67
2023-04-07T13:11:23.825Z,57.14
2023-04-07T13:12:27.311Z,54.03
2023-04-07T13:13:32.470Z,55.90
2023-04-07T13:14:34.348Z,54.66
2023-04-07T13:15:37.381Z,54.60
2023-04-07T13:16:39.213Z,52.82
2023-04-07T13:17:42.216Z,52.67
2023-04-07T13:18:45.210Z,53.52
2023-04-07T13:19:48.049Z,57.85
2023-04-07T13:20:58.591Z,57.92
2023-04-07T13:22:17.830Z,58.75
2023-04-07T13:23:21.431Z,57.56
2023-04-07T13:24:23.470Z,57.40
2023-04-07T13:25:27.856Z,55.81
2023-04-07T13:26:31.223Z,68.98
2023-04-07T13:27:34.154Z,72.13
2023-04-07T13:28:36.516Z,71.57
2023-04-07T13:29:39.401Z,61.16
2023-04-07T13:30:41.666Z,58.36
2023-04-07T13:31:46.701Z,53.12
2023-04-07T13:32:49.755Z,53.24
2023-04-07T13:33:52.687Z,52.59
2023-04-07T13:34:55.538Z,54.32
2023-04-07T13:35:57.409Z,54.04
2023-04-07T13:37:02.383Z,53.87
2023-04-07T13:38:05.625Z,55.44
2023-04-07T13:39:07.845Z,55.05
2023-04-07T13:40:12.638Z,55.32
2023-04-07T13:41:15.916Z,55.61
2023-04-07T13:42:20.511Z,53.02
2023-04-07T13:43:23.324Z,52.93
2023-04-07T13:44:26.333Z,58.97
2023-04-07T13:45:29.304Z,60.48
2023-04-07T13:46:31.241Z,64.58
2023-04-07T13:47:35.467Z,62.95
2023-04-07T13:48:38.310Z,61.64
2023-04-07T13:49:40.349Z,58.98
2023-04-07T13:50:43.293Z,52.21
2023-04-07T13:51:45.324Z,53.36